Time;durP1;ratioP1;P1;durP2;ratioP2;P2;SDS_P1;SDS_P2;PMS_P1;PMS_P2;Temp;Humidity;BMP_temperature;BMP_pressure;BME280_temperature;BME280_humidity;BME280_pressure;Samples;Min_cycle;Max_cycle;Signal;HPM_P1;HPM_P2
2024/02/25 00:00:37;;;;;;;3.22;2.20;;;;;;;4.55;100.00;99971.88;6087067;19;20031;-76
2024/02/25 00:02:42;;;;;;;4.50;2.63;;;;;;;4.56;100.00;99970.16;6085277;19;20094;-75
2024/02/25 00:04:47;;;;;;;4.72;2.60;;;;;;;4.52;100.00;99969.38;6082392;19;20345;-76
2024/02/25 00:06:53;;;;;;;5.38;3.22;;;;;;;4.47;100.00;99970.41;6082201;19;20003;-74
2024/02/25 00:08:58;;;;;;;4.72;2.90;;;;;;;4.52;100.00;99966.75;6082932;19;20014;-74
2024/02/25 00:11:01;;;;;;;5.65;3.38;;;;;;;4.58;100.00;99968.31;6081617;19;20021;-74
2024/02/25 00:13:07;;;;;;;8.70;3.78;;;;;;;4.50;100.00;99973.78;6085413;19;20006;-74
2024/02/25 00:15:15;;;;;;;6.03;3.13;;;;;;;4.48;100.00;99969.53;6084971;19;20018;-74
2024/02/25 00:17:20;;;;;;;4.55;2.72;;;;;;;4.52;100.00;99971.13;6085313;19;20034;-73
2024/02/25 00:19:29;;;;;;;4.25;2.53;;;;;;;4.52;100.00;99964.16;6084352;19;20021;-73
2024/02/25 00:21:35;;;;;;;6.05;3.20;;;;;;;4.53;100.00;99958.09;6082355;19;20002;-72
2024/02/25 00:23:37;;;;;;;7.40;3.88;;;;;;;4.51;100.00;99964.22;6083426;19;20010;-72
2024/02/25 00:25:43;;;;;;;5.63;3.50;;;;;;;4.54;100.00;99958.94;6084693;19;20019;-74
2024/02/25 00:27:48;;;;;;;5.82;3.30;;;;;;;4.60;100.00;99958.72;6085549;19;20054;-74
2024/02/25 00:29:53;;;;;;;6.28;3.97;;;;;;;4.61;100.00;99963.06;6085014;19;20202;-74
2024/02/25 00:32:01;;;;;;;6.35;3.40;;;;;;;4.65;100.00;99961.22;6083968;19;20014;-75
2024/02/25 00:34:06;;;;;;;9.07;4.55;;;;;;;4.66;100.00;99971.59;6082974;19;20324;-75
2024/02/25 00:36:14;;;;;;;6.60;3.83;;;;;;;4.69;100.00;99961.06;6084237;19;20375;-74
2024/02/25 00:38:19;;;;;;;9.38;4.78;;;;;;;4.72;100.00;99962.72;6084059;19;20677;-74
2024/02/25 00:40:24;;;;;;;7.78;3.70;;;;;;;4.71;100.00;99967.06;6078586;19;20018;-74
2024/02/25 00:42:29;;;;;;;6.25;3.83;;;;;;;4.72;100.00;99962.72;6080229;19;20019;-74
2024/02/25 00:44:36;;;;;;;6.15;3.88;;;;;;;4.71;100.00;99976.63;6082800;19;20066;-75
2024/02/25 00:46:41;;;;;;;7.82;3.75;;;;;;;4.68;100.00;99971.50;6082787;19;20013;-74
2024/02/25 00:48:48;;;;;;;6.47;3.45;;;;;;;4.75;100.00;99962.63;6081979;19;20003;-74
2024/02/25 00:50:53;;;;;;;7.70;3.80;;;;;;;4.77;100.00;99972.09;6083900;19;20848;-74
2024/02/25 00:52:56;;;;;;;7.13;3.70;;;;;;;4.74;100.00;99967.00;6080765;19;20470;-74
2024/02/25 00:55:01;;;;;;;8.25;4.05;;;;;;;4.72;100.00;99965.34;6082726;19;20010;-74
2024/02/25 00:57:06;;;;;;;6.90;4.63;;;;;;;4.77;100.00;99969.50;6084652;19;20593;-74
2024/02/25 00:59:12;;;;;;;7.72;4.32;;;;;;;4.79;100.00;99967.72;6084828;19;20479;-75
2024/02/25 01:01:19;;;;;;;7.70;4.75;;;;;;;4.76;100.00;99966.94;6085311;19;20081;-75
2024/02/25 01:03:25;;;;;;;8.88;4.55;;;;;;;4.76;100.00;99967.78;6082750;19;20439;-75
2024/02/25 01:05:33;;;;;;;9.68;5.00;;;;;;;4.76;100.00;99961.72;6081812;19;20010;-75
2024/02/25 01:07:38;;;;;;;10.48;5.20;;;;;;;4.80;100.00;99971.16;6084560;19;20014;-76
2024/02/25 01:09:41;;;;;;;8.93;4.30;;;;;;;4.83;100.00;99971.91;6084732;19;20447;-75
2024/02/25 01:11:46;;;;;;;10.10;5.45;;;;;;;4.83;100.00;99976.25;6085074;19;20363;-76
2024/02/25 01:13:54;;;;;;;6.72;4.25;;;;;;;4.77;100.00;99977.31;6084390;19;20007;-75
2024/02/25 01:16:02;;;;;;;7.97;4.45;;;;;;;4.70;100.00;99973.19;6089197;19;20477;-75
2024/02/25 01:18:07;;;;;;;7.85;4.40;;;;;;;4.75;100.00;99970.44;6090982;19;20006;-76
2024/02/25 01:20:13;;;;;;;6.95;3.83;;;;;;;4.72;100.00;99967.94;6092890;19;20003;-75
2024/02/25 01:22:20;;;;;;;7.00;3.92;;;;;;;4.72;100.00;99967.94;6089445;19;20026;-75
2024/02/25 01:24:26;;;;;;;5.90;3.83;;;;;;;4.65;100.00;99974.22;6090400;19;20019;-75
2024/02/25 01:26:31;;;;;;;4.60;3.30;;;;;;;4.69;100.00;99965.44;6089129;19;20073;-75
2024/02/25 01:28:37;;;;;;;10.60;4.50;;;;;;;4.66;100.00;99966.38;6092141;19;20653;-76
2024/02/25 01:30:42;;;;;;;7.10;3.90;;;;;;;4.67;100.00;99965.47;6087771;19;20010;-76
2024/02/25 01:32:44;;;;;;;7.32;3.78;;;;;;;4.60;100.00;99970.00;6087478;19;20004;-75
2024/02/25 01:34:50;;;;;;;7.63;3.92;;;;;;;4.58;100.00;99974.41;6091802;19;20007;-75
2024/02/25 01:36:58;;;;;;;5.40;3.80;;;;;;;4.62;100.00;99963.00;6089293;19;20010;-75
2024/02/25 01:39:07;;;;;;;5.90;3.83;;;;;;;4.65;100.00;99969.84;6089216;19;20474;-76
2024/02/25 01:41:12;;;;;;;7.07;4.13;;;;;;;4.63;100.00;99958.63;6089882;19;20470;-76
2024/02/25 01:43:17;;;;;;;8.25;4.38;;;;;;;4.57;100.00;99975.28;6088106;19;20003;-75
2024/02/25 01:45:24;;;;;;;9.73;4.97;;;;;;;4.56;100.00;99964.94;6088375;19;20007;-75
2024/02/25 01:47:30;;;;;;;9.98;4.60;;;;;;;4.56;100.00;99967.53;6088503;19;20443;-75
2024/02/25 01:49:36;;;;;;;7.10;3.88;;;;;;;4.53;100.00;99967.59;6090731;19;20014;-75
2024/02/25 01:51:42;;;;;;;9.45;4.35;;;;;;;4.55;100.00;99960.63;6086284;19;20003;-75
2024/02/25 01:53:48;;;;;;;8.00;4.57;;;;;;;4.53;100.00;99965.00;6083755;19;20486;-74
2024/02/25 01:55:56;;;;;;;7.03;4.22;;;;;;;4.56;100.00;99964.94;6088011;19;20006;-74
2024/02/25 01:58:02;;;;;;;8.38;4.20;;;;;;;4.57;100.00;99966.63;6086766;19;20002;-73
2024/02/25 02:00:10;;;;;;;10.15;4.50;;;;;;;4.62;100.00;99956.94;6084456;19;20022;-73
2024/02/25 02:02:16;;;;;;;9.40;5.65;;;;;;;4.57;100.00;99956.22;6088242;19;20046;-73
2024/02/25 02:04:21;;;;;;;6.60;4.25;;;;;;;4.52;100.00;99965.91;6085424;19;20034;-74
2024/02/25 02:06:27;;;;;;;8.25;4.35;;;;;;;4.49;100.00;99966.88;6082797;19;20054;-73
2024/02/25 02:08:33;;;;;;;10.38;4.78;;;;;;;4.51;100.00;99959.88;6085788;19;20009;-73
2024/02/25 02:10:39;;;;;;;10.85;5.78;;;;;;;4.54;100.00;99964.13;6087370;19;20002;-72
2024/02/25 02:12:48;;;;;;;10.23;5.65;;;;;;;4.58;100.00;99969.22;6087352;19;20017;-72
2024/02/25 02:14:53;;;;;;;9.32;5.38;;;;;;;4.54;100.00;99964.13;6087828;19;20624;-72
2024/02/25 02:16:58;;;;;;;10.10;5.45;;;;;;;4.55;100.00;99965.81;6087155;19;20014;-72
2024/02/25 02:19:04;;;;;;;9.93;4.47;;;;;;;4.63;100.00;99963.84;6085853;19;20003;-73
2024/02/25 02:21:12;;;;;;;9.98;4.85;;;;;;;4.61;100.00;99963.06;6078484;19;20011;-72
2024/02/25 02:23:17;;;;;;;12.07;6.35;;;;;;;4.58;100.00;99965.72;6082729;19;20657;-73
2024/02/25 02:25:22;;;;;;;9.13;5.40;;;;;;;4.56;100.00;99970.16;6082198;19;20050;-73
2024/02/25 02:27:30;;;;;;;12.70;4.97;;;;;;;4.61;100.00;99968.25;6087118;19;20023;-73
2024/02/25 02:29:35;;;;;;;12.75;5.80;;;;;;;4.58;100.00;99968.31;6086425;19;20040;-73
2024/02/25 02:31:40;;;;;;;11.35;5.72;;;;;;;4.62;100.00;99969.97;6085754;19;20102;-72
2024/02/25 02:33:45;;;;;;;11.63;5.93;;;;;;;4.58;100.00;99960.53;6086891;19;20031;-72
2024/02/25 02:35:53;;;;;;;13.57;6.50;;;;;;;4.62;100.00;99965.59;6085410;19;20003;-73
2024/02/25 02:38:00;;;;;;;11.40;6.03;;;;;;;4.66;100.00;99962.91;6084449;19;20007;-72
2024/02/25 02:40:06;;;;;;;12.27;6.80;;;;;;;4.60;100.00;99970.00;6084495;19;20019;-73
2024/02/25 02:42:12;;;;;;;10.52;5.43;;;;;;;4.61;100.00;99961.31;6087459;19;20007;-73
2024/02/25 02:44:17;;;;;;;13.57;6.10;;;;;;;4.56;100.00;99967.53;6088096;19;20530;-73
2024/02/25 02:46:22;;;;;;;12.02;6.18;;;;;;;4.58;100.00;99968.31;6084952;19;20078;-73
2024/02/25 02:48:27;;;;;;;11.82;6.05;;;;;;;4.58;100.00;99965.72;6087722;19;20018;-73
2024/02/25 02:50:36;;;;;;;12.20;6.45;;;;;;;4.66;100.00;99961.16;6088401;19;20010;-73
2024/02/25 02:52:41;;;;;;;13.60;7.05;;;;;;;4.61;100.00;99960.47;6086390;19;20070;-73
2024/02/25 02:54:49;;;;;;;13.65;6.80;;;;;;;4.55;100.00;99966.66;6086429;19;20609;-72
2024/02/25 02:56:57;;;;;;;12.98;7.38;;;;;;;4.57;100.00;99969.25;6085238;19;20010;-73
2024/02/25 02:59:01;;;;;;;13.60;6.53;;;;;;;4.57;100.00;99964.88;6087616;19;20033;-73
2024/02/25 03:01:07;;;;;;;14.35;7.47;;;;;;;4.58;100.00;99955.31;6087324;19;20024;-73
2024/02/25 03:03:12;;;;;;;12.98;6.95;;;;;;;4.59;100.00;99959.66;6086450;19;20021;-72
2024/02/25 03:05:17;;;;;;;16.08;6.43;;;;;;;4.61;100.00;99955.25;6087300;19;20041;-72
2024/02/25 03:07:24;;;;;;;14.65;7.93;;;;;;;4.65;100.00;99958.59;6086516;19;20017;-73
2024/02/25 03:09:29;;;;;;;14.70;7.38;;;;;;;4.60;100.00;99958.72;6085432;19;20042;-73
2024/02/25 03:11:37;;;;;;;12.40;7.30;;;;;;;4.59;100.00;99957.03;6082116;19;20014;-72
2024/02/25 03:13:42;;;;;;;12.98;6.82;;;;;;;4.67;100.00;99955.06;6084785;19;20006;-73
2024/02/25 03:15:47;;;;;;;13.43;7.03;;;;;;;4.67;100.00;99955.06;6084964;19;20509;-71
2024/02/25 03:17:52;;;;;;;15.27;7.15;;;;;;;4.68;100.00;99953.31;6083184;19;20011;-75
2024/02/25 03:19:57;;;;;;;14.68;6.85;;;;;;;4.75;100.00;99958.28;6083828;19;20083;-74
2024/02/25 03:22:03;;;;;;;14.98;7.60;;;;;;;4.71;100.00;99954.03;6085429;19;20024;-75
2024/02/25 03:24:09;;;;;;;15.98;7.90;;;;;;;4.66;100.00;99950.75;6085441;19;20020;-75
2024/02/25 03:26:16;;;;;;;13.30;7.47;;;;;;;4.64;100.00;99952.56;6086818;19;19999;-73
2024/02/25 03:28:26;;;;;;;14.52;8.18;;;;;;;4.66;100.00;99955.97;6086160;19;20359;-73
2024/02/25 03:30:29;;;;;;;16.50;7.57;;;;;;;4.67;100.00;99954.22;6085883;19;20017;-73
2024/02/25 03:32:34;;;;;;;16.75;7.80;;;;;;;4.68;100.00;99946.34;6085368;19;20023;-73
2024/02/25 03:34:39;;;;;;;15.15;7.18;;;;;;;4.67;100.00;99955.06;6083241;19;19999;-74
2024/02/25 03:36:45;;;;;;;17.00;7.28;;;;;;;4.64;100.00;99954.31;6081863;19;20003;-75
2024/02/25 03:38:50;;;;;;;15.45;7.78;;;;;;;4.61;100.00;99955.25;6084894;19;20007;-73
2024/02/25 03:40:57;;;;;;;13.70;7.57;;;;;;;4.63;100.00;99956.03;6085144;19;20017;-74
2024/02/25 03:42:59;;;;;;;15.77;8.02;;;;;;;4.64;100.00;99954.31;6084766;19;20373;-74
2024/02/25 03:45:08;;;;;;;20.15;8.63;;;;;;;4.65;100.00;99953.41;6086063;19;20037;-74
2024/02/25 03:47:13;;;;;;;13.43;7.13;;;;;;;4.61;100.00;99956.09;6085872;19;20022;-73
2024/02/25 03:49:20;;;;;;;15.38;8.02;;;;;;;4.66;100.00;99958.56;6083150;19;20395;-75
2024/02/25 03:51:26;;;;;;;17.90;8.30;;;;;;;4.66;100.00;99950.75;6083085;19;20237;-74
2024/02/25 03:53:31;;;;;;;17.73;8.10;;;;;;;4.63;100.00;99953.44;6083650;19;20010;-73
2024/02/25 03:55:36;;;;;;;19.05;9.50;;;;;;;4.67;100.00;99959.41;6087920;19;20027;-73
2024/02/25 03:57:41;;;;;;;15.52;9.70;;;;;;;4.65;100.00;99956.84;6087891;19;20015;-74
2024/02/25 03:59:46;;;;;;;18.83;9.68;;;;;;;4.65;100.00;99958.59;6084645;19;20110;-73
2024/02/25 04:01:54;;;;;;;18.92;9.30;;;;;;;4.64;100.00;99955.16;6086174;19;20010;-73
2024/02/25 04:03:59;;;;;;;21.70;10.77;;;;;;;4.67;100.00;99959.41;6084465;19;20015;-74
2024/02/25 04:06:05;;;;;;;18.80;9.45;;;;;;;4.67;100.00;99964.63;6084110;19;20410;-72
2024/02/25 04:08:10;;;;;;;17.10;9.32;;;;;;;4.69;100.00;99965.44;6085684;19;20026;-73
2024/02/25 04:10:15;;;;;;;25.98;9.68;;;;;;;4.69;100.00;99968.03;6087488;19;20041;-75
2024/02/25 04:12:19;;;;;;;16.85;9.52;;;;;;;4.67;100.00;99957.66;6084893;19;20358;-73
2024/02/25 04:14:24;;;;;;;18.88;9.85;;;;;;;4.68;100.00;99967.16;6086241;19;20309;-72
2024/02/25 04:16:29;;;;;;;17.13;9.07;;;;;;;4.67;100.00;99960.25;6087538;19;20349;-73
2024/02/25 04:18:37;;;;;;;18.17;10.10;;;;;;;4.67;100.00;99962.88;6088396;19;20324;-72
2024/02/25 04:20:42;;;;;;;16.98;9.35;;;;;;;4.71;100.00;99966.22;6085479;19;20510;-72
2024/02/25 04:22:48;;;;;;;23.10;9.77;;;;;;;4.74;100.00;99969.59;6085784;19;20467;-73
2024/02/25 04:24:53;;;;;;;18.27;8.95;;;;;;;4.71;100.00;99967.06;6083660;19;20006;-74
2024/02/25 04:26:58;;;;;;;20.92;10.18;;;;;;;4.70;100.00;99969.72;6085649;19;20022;-73
2024/02/25 04:29:01;;;;;;;16.98;10.05;;;;;;;4.74;100.00;99972.19;6084061;19;20003;-73
2024/02/25 04:31:06;;;;;;;;;;;;;;;4.75;100.00;99962.63;6086360;19;20129;-73
2024/02/25 04:33:11;;;;;;;24.75;9.38;;;;;;;4.79;100.00;99972.03;6084623;19;19917;-72
2024/02/25 04:35:19;;;;;;;16.92;9.38;;;;;;;4.78;100.00;99970.34;6086970;19;20006;-73
2024/02/25 04:37:26;;;;;;;14.35;8.73;;;;;;;4.79;100.00;99966.81;6084319;19;20665;-72
2024/02/25 04:39:31;;;;;;;16.17;9.25;;;;;;;4.76;100.00;99970.38;6083160;19;20094;-72
2024/02/25 04:41:36;;;;;;;19.05;8.70;;;;;;;4.75;100.00;99965.22;6080154;19;20003;-72
2024/02/25 04:43:41;;;;;;;15.90;8.98;;;;;;;4.79;100.00;99964.22;6080091;19;20077;-73
2024/02/25 04:45:47;;;;;;;15.88;8.65;;;;;;;4.80;100.00;99973.75;6082466;19;20002;-73
2024/02/25 04:47:55;;;;;;;19.25;8.90;;;;;;;4.76;100.00;99970.38;6083494;19;20371;-73
2024/02/25 04:50:00;;;;;;;16.48;8.93;;;;;;;4.77;100.00;99976.47;6088968;19;20607;-72
2024/02/25 04:52:10;;;;;;;17.98;9.20;;;;;;;4.85;100.00;99974.47;6089062;19;20007;-74
2024/02/25 04:54:15;;;;;;;15.52;8.20;;;;;;;4.80;100.00;99971.16;6089072;19;20017;-74
2024/02/25 04:56:18;;;;;;;20.90;10.45;;;;;;;4.82;100.00;99970.22;6089265;19;20443;-73
2024/02/25 04:58:23;;;;;;;15.85;8.68;;;;;;;4.87;100.00;99970.06;6086549;19;20273;-72
2024/02/25 05:00:28;;;;;;;17.77;9.93;;;;;;;4.86;100.00;99968.34;6089788;19;20087;-74
2024/02/25 05:02:36;;;;;;;18.38;8.93;;;;;;;4.82;100.00;99980.63;6088485;19;20014;-71
2024/02/25 05:04:42;;;;;;;16.20;8.55;;;;;;;4.84;100.00;99973.63;6090459;19;20380;-74
2024/02/25 05:06:46;;;;;;;18.92;8.50;;;;;;;4.89;100.00;99980.41;6087245;19;20002;-72
2024/02/25 05:08:57;;;;;;;19.80;8.50;;;;;;;4.79;100.00;99979.84;6090380;19;20561;-72
2024/02/25 05:11:02;;;;;;;16.55;7.68;;;;;;;4.79;100.00;99972.91;6091625;19;20034;-73
2024/02/25 05:13:07;;;;;;;18.63;8.65;;;;;;;4.89;100.00;99977.81;6091072;19;20007;-73
2024/02/25 05:15:13;;;;;;;17.33;7.85;;;;;;;4.92;100.00;99981.16;6088105;19;20434;-72
2024/02/25 05:17:18;;;;;;;17.73;8.93;;;;;;;4.93;100.00;99976.84;6090713;19;20762;-72
2024/02/25 05:19:23;;;;;;;18.85;9.13;;;;;;;4.88;100.00;99974.38;6087021;19;20041;-72
2024/02/25 05:21:25;;;;;;;13.90;7.30;;;;;;;4.87;100.00;99974.41;6088960;19;20014;-72
2024/02/25 05:23:32;;;;;;;20.25;11.15;;;;;;;4.89;100.00;99970.00;6089434;19;20355;-72
2024/02/25 05:25:40;;;;;;;16.17;7.95;;;;;;;4.85;100.00;99974.47;6089693;19;20014;-73
2024/02/25 05:27:43;;;;;;;20.20;9.20;;;;;;;4.83;100.00;99973.66;6085052;19;20007;-73
2024/02/25 05:29:48;;;;;;;18.23;9.45;;;;;;;4.84;100.00;99978.81;6090183;19;20038;-73
2024/02/25 05:31:53;;;;;;;16.75;8.95;;;;;;;4.85;100.00;99977.06;6088275;19;20007;-73
2024/02/25 05:33:59;;;;;;;17.63;8.77;;;;;;;4.87;100.00;99984.81;6089310;19;20129;-73
2024/02/25 05:36:03;;;;;;;20.48;9.50;;;;;;;4.83;100.00;99986.66;6088898;19;20143;-73
2024/02/25 05:38:08;;;;;;;19.48;9.30;;;;;;;4.87;100.00;99987.41;6090871;19;20011;-73
2024/02/25 05:40:15;;;;;;;20.27;9.88;;;;;;;4.93;100.00;99989.84;6085996;19;20338;-73
2024/02/25 05:42:25;;;;;;;18.77;8.50;;;;;;;4.88;100.00;99990.00;6086107;19;20351;-73
2024/02/25 05:44:30;;;;;;;21.52;8.75;;;;;;;4.84;100.00;99997.06;6088105;19;22815;-73
2024/02/25 05:46:38;;;;;;;19.05;9.55;;;;;;;4.87;100.00;99997.84;6088034;19;20002;-73
2024/02/25 05:48:44;;;;;;;17.85;8.68;;;;;;;4.84;100.00;99994.44;6089487;19;20006;-73
2024/02/25 05:50:49;;;;;;;12.75;7.63;;;;;;;4.85;100.00;99992.69;6086839;19;20474;-73
2024/02/25 05:52:54;;;;;;;16.80;8.20;;;;;;;4.84;100.00;99997.06;6084427;19;20093;-73
2024/02/25 05:54:56;;;;;;;16.92;8.35;;;;;;;4.83;100.00;100008.34;6088368;19;20014;-73
2024/02/25 05:57:05;;;;;;;16.55;9.57;;;;;;;4.77;100.00;99998.13;6086409;19;20410;-73
2024/02/25 05:59:13;;;;;;;15.40;8.15;;;;;;;4.77;100.00;100000.72;6086071;19;20373;-73
2024/02/25 06:01:18;;;;;;;16.98;9.77;;;;;;;4.75;100.00;100004.28;6089991;19;20037;-73
2024/02/25 06:03:23;;;;;;;17.25;8.23;;;;;;;4.74;100.00;100011.25;6088232;19;20060;-73
2024/02/25 06:05:30;;;;;;;18.77;8.63;;;;;;;4.71;100.00;100011.31;6086842;19;20010;-74
2024/02/25 06:07:36;;;;;;;16.83;10.15;;;;;;;4.73;100.00;100008.66;6089452;19;20470;-73
2024/02/25 06:09:41;;;;;;;19.95;8.90;;;;;;;4.77;100.00;100008.53;6087901;19;20013;-73
2024/02/25 06:11:48;;;;;;;18.45;9.10;;;;;;;4.77;100.00;100008.53;6083031;19;20011;-74
2024/02/25 06:13:53;;;;;;;16.38;8.95;;;;;;;4.76;100.00;100012.03;6088170;19;20015;-74
2024/02/25 06:16:00;;;;;;;17.50;8.50;;;;;;;4.79;100.00;100017.16;6085257;19;20019;-74
2024/02/25 06:18:10;;;;;;;18.40;9.30;;;;;;;4.74;100.00;100019.03;6087494;19;20454;-73
2024/02/25 06:20:15;;;;;;;17.30;9.00;;;;;;;4.76;100.00;100014.63;6085690;19;20045;-73
2024/02/25 06:22:27;;;;;;;18.23;9.35;;;;;;;4.82;100.00;100017.06;6086049;19;20098;-73
2024/02/25 06:24:32;;;;;;;23.15;9.80;;;;;;;4.74;100.00;100013.84;6085596;19;20042;-73
2024/02/25 06:26:37;;;;;;;16.17;8.18;;;;;;;4.74;100.00;100012.97;6084094;19;20034;-75
2024/02/25 06:28:42;;;;;;;20.27;9.82;;;;;;;4.74;100.00;100013.84;6087839;19;20021;-75
2024/02/25 06:30:44;;;;;;;19.38;8.90;;;;;;;4.75;100.00;100019.88;6088312;19;20015;-75
2024/02/25 06:32:52;;;;;;;16.10;8.38;;;;;;;4.71;100.00;100018.25;6085511;19;20074;-75
2024/02/25 06:34:57;;;;;;;22.67;10.93;;;;;;;4.67;100.00;100022.72;6086921;19;20007;-75
2024/02/25 06:37:02;;;;;;;20.95;9.77;;;;;;;4.59;100.00;100019.50;6086350;19;20010;-75
2024/02/25 06:39:08;;;;;;;19.58;8.95;;;;;;;4.61;100.00;100017.69;6085505;19;20102;-75
2024/02/25 06:41:17;;;;;;;27.98;10.02;;;;;;;4.57;100.00;100016.06;6087242;19;20037;-75
2024/02/25 06:43:24;;;;;;;16.45;9.10;;;;;;;4.57;100.00;100021.28;6082601;19;20023;-74
2024/02/25 06:45:29;;;;;;;21.85;9.20;;;;;;;4.54;100.00;100023.97;6085698;19;20573;-75
2024/02/25 06:47:35;;;;;;;18.85;10.55;;;;;;;4.60;100.00;100027.22;6087010;19;20007;-75
2024/02/25 06:49:43;;;;;;;19.42;10.15;;;;;;;4.60;100.00;100031.59;6088303;19;20399;-75
2024/02/25 06:51:48;;;;;;;19.45;10.10;;;;;;;4.58;100.00;100022.97;6087081;19;20435;-75
2024/02/25 06:53:54;;;;;;;23.98;10.35;;;;;;;4.54;100.00;100031.78;6084653;19;20472;-75
2024/02/25 06:55:59;;;;;;;19.27;10.52;;;;;;;4.50;100.00;100027.53;6088315;19;20429;-75
2024/02/25 06:58:04;;;;;;;19.42;10.48;;;;;;;4.57;100.00;100031.69;6088151;19;20003;-75
2024/02/25 07:00:08;;;;;;;18.10;9.88;;;;;;;4.50;100.00;100038.84;6086801;19;20006;-75
2024/02/25 07:02:13;;;;;;;21.40;10.35;;;;;;;4.49;100.00;100033.66;6082419;19;20010;-75
2024/02/25 07:04:19;;;;;;;19.33;10.15;;;;;;;4.47;100.00;100038.03;6088401;19;20021;-75
2024/02/25 07:06:27;;;;;;;19.30;10.05;;;;;;;4.39;100.00;100046.91;6088563;19;20003;-75
2024/02/25 07:08:34;;;;;;;19.90;10.02;;;;;;;4.41;100.00;100046.88;6089047;19;20038;-75
2024/02/25 07:10:39;;;;;;;19.05;11.10;;;;;;;4.49;100.00;100046.66;6088401;19;20418;-75
2024/02/25 07:12:45;;;;;;;18.52;9.38;;;;;;;4.56;100.00;100051.66;6087185;19;20010;-74
2024/02/25 07:14:49;;;;;;;21.60;10.35;;;;;;;4.55;100.00;100052.53;6086636;19;20078;-75
2024/02/25 07:16:58;;;;;;;15.75;9.90;;;;;;;4.60;100.00;100057.59;6087143;19;20014;-75
2024/02/25 07:19:00;;;;;;;21.08;10.35;;;;;;;4.67;100.00;100053.09;6086738;19;20014;-74
2024/02/25 07:21:08;;;;;;;23.25;11.73;;;;;;;4.67;100.00;100056.56;6087241;19;20895;-75
2024/02/25 07:23:15;;;;;;;21.35;11.50;;;;;;;4.70;100.00;100066.03;6083947;19;20117;-75
2024/02/25 07:25:21;;;;;;;21.80;11.00;;;;;;;4.74;100.00;100062.41;6085555;19;20365;-75
2024/02/25 07:27:29;;;;;;;19.75;10.23;;;;;;;4.75;100.00;100056.31;6082412;19;20487;-76
2024/02/25 07:29:34;;;;;;;20.40;9.48;;;;;;;4.79;100.00;100061.41;6083516;19;20027;-74
2024/02/25 07:31:39;;;;;;;23.00;11.20;;;;;;;4.79;100.00;100056.19;6086358;19;20006;-74
2024/02/25 07:33:44;;;;;;;20.08;9.68;;;;;;;4.83;100.00;100067.38;6084792;19;20021;-75
2024/02/25 07:35:49;;;;;;;20.98;10.35;;;;;;;4.89;100.00;100068.94;6085340;19;20010;-75
2024/02/25 07:37:54;;;;;;;24.52;11.52;;;;;;;4.91;100.00;100072.34;6086204;19;20029;-74
2024/02/25 07:39:59;;;;;;;22.33;11.32;;;;;;;4.90;100.00;100068.03;6085532;19;20039;-75
2024/02/25 07:42:05;;;;;;;21.65;11.40;;;;;;;4.92;100.00;100063.63;6085477;19;20350;-74
2024/02/25 07:44:10;;;;;;;18.83;10.98;;;;;;;4.95;100.00;100072.22;6085173;19;20343;-75
2024/02/25 07:46:17;;;;;;;19.75;9.52;;;;;;;4.99;100.00;100071.22;6085324;19;20016;-74
2024/02/25 07:48:22;;;;;;;26.98;11.73;;;;;;;5.07;100.00;100073.59;6083987;19;20026;-75
2024/02/25 07:50:30;;;;;;;25.58;12.05;;;;;;;5.09;100.00;100065.75;6086106;19;20486;-74
2024/02/25 07:52:35;;;;;;;23.88;11.23;;;;;;;5.11;100.00;100071.75;6085851;19;20604;-75
2024/02/25 07:54:40;;;;;;;20.55;9.93;;;;;;;5.11;100.00;100075.22;6088515;19;20007;-74
2024/02/25 07:56:45;;;;;;;20.77;11.10;;;;;;;5.14;100.00;100079.47;6085231;19;20474;-75
2024/02/25 07:58:50;;;;;;;17.85;10.32;;;;;;;5.21;100.00;100087.06;6085980;19;20793;-75
2024/02/25 08:00:54;;;;;;;20.38;11.32;;;;;;;5.24;100.00;100089.56;6084532;19;20699;-76
2024/02/25 08:02:59;;;;;;;19.13;9.07;;;;;;;5.30;100.00;100082.47;6081580;19;20011;-75
2024/02/25 08:05:02;;;;;;;22.95;11.63;;;;;;;5.26;100.00;100085.13;6083548;19;20022;-75
2024/02/25 08:07:07;;;;;;;18.80;9.95;;;;;;;5.24;100.00;100086.13;6085671;19;20014;-75
2024/02/25 08:09:13;;;;;;;20.67;10.32;;;;;;;5.30;100.00;100096.34;6085563;19;20558;-75
2024/02/25 08:11:18;;;;;;;17.15;10.93;;;;;;;5.32;100.00;100093.66;6086114;19;20088;-75
2024/02/25 08:13:27;;;;;;;20.50;10.02;;;;;;;5.34;100.00;100081.47;6086354;19;21075;-75
2024/02/25 08:15:32;;;;;;;19.35;10.30;;;;;;;5.36;100.00;100092.69;6085122;19;20203;-74
2024/02/25 08:17:37;;;;;;;17.70;10.48;;;;;;;5.39;100.00;100097.81;6085248;19;20002;-76
2024/02/25 08:19:42;;;;;;;22.25;9.85;;;;;;;5.39;100.00;100089.97;6087623;19;20867;-76
2024/02/25 08:21:45;;;;;;;19.50;10.30;;;;;;;5.39;100.00;100090.84;6085476;19;20038;-76
2024/02/25 08:23:51;;;;;;;20.15;9.77;;;;;;;5.44;100.00;100088.94;6084326;19;20031;-76
2024/02/25 08:25:56;;;;;;;18.27;9.20;;;;;;;5.43;100.00;100097.66;6086977;19;20053;-76
2024/02/25 08:28:01;;;;;;;22.90;10.25;;;;;;;5.47;100.00;100098.41;6090306;19;20010;-77
2024/02/25 08:30:11;;;;;;;18.17;9.80;;;;;;;5.44;100.00;100094.16;6089342;19;20030;-75
2024/02/25 08:32:16;;;;;;;21.52;10.75;;;;;;;5.47;100.00;100098.41;6087005;19;20020;-74
2024/02/25 08:34:24;;;;;;;23.10;10.32;;;;;;;5.50;100.00;100095.69;6088905;19;20178;-75
2024/02/25 08:36:30;;;;;;;28.60;12.32;;;;;;;5.55;100.00;100099.00;6087156;19;20011;-75
2024/02/25 08:38:36;;;;;;;24.83;11.55;;;;;;;5.58;100.00;100092.84;6084441;19;20466;-75
2024/02/25 08:40:41;;;;;;;18.63;11.40;;;;;;;5.58;100.00;100095.47;6087107;19;20019;-76
2024/02/25 08:42:46;;;;;;;25.80;11.55;;;;;;;5.66;100.00;100094.34;6085955;19;20010;-75
2024/02/25 08:44:53;;;;;;;22.88;11.82;;;;;;;5.69;100.00;100086.41;6086936;19;20007;-77
2024/02/25 08:47:00;;;;;;;23.23;11.65;;;;;;;5.73;100.00;100092.38;6085224;19;20024;-76
2024/02/25 08:49:06;;;;;;;20.98;11.25;;;;;;;5.78;100.00;100089.63;6083405;19;20018;-75
2024/02/25 08:51:11;;;;;;;26.42;11.27;;;;;;;5.85;100.00;100089.38;6084761;19;20038;-75
2024/02/25 08:53:19;;;;;;;20.17;9.60;;;;;;;5.91;100.00;100093.53;6081888;19;20018;-75
2024/02/25 08:55:25;;;;;;;24.75;12.82;;;;;;;5.96;100.00;100088.19;6083744;19;20028;-75
2024/02/25 08:57:32;;;;;;;19.23;10.18;;;;;;;6.14;100.00;100093.63;6082603;19;20007;-75
2024/02/25 08:59:35;;;;;;;29.13;11.90;;;;;;;6.32;100.00;100086.09;6083169;19;20095;-76
2024/02/25 09:01:41;;;;;;;27.48;12.77;;;;;;;6.41;100.00;100085.75;6085512;19;20007;-75
2024/02/25 09:03:48;;;;;;;26.33;13.57;;;;;;;6.65;100.00;100086.63;6082475;19;20752;-77
2024/02/25 09:05:56;;;;;;;26.45;12.57;;;;;;;6.81;100.00;100081.69;6082886;19;20015;-77
2024/02/25 09:08:01;;;;;;;20.52;11.23;;;;;;;6.85;100.00;100080.69;6082514;19;20038;-76
2024/02/25 09:10:12;;;;;;;25.10;12.32;;;;;;;7.14;100.00;100084.81;6084531;19;20499;-75
2024/02/25 09:12:17;;;;;;;20.08;12.95;;;;;;;7.38;100.00;100077.75;6083586;19;20013;-75
2024/02/25 09:14:23;;;;;;;20.83;12.13;;;;;;;6.99;100.00;100082.75;6084304;19;20476;-76
2024/02/25 09:16:25;;;;;;;27.13;11.35;;;;;;;7.25;100.00;100077.38;6084891;19;20325;-77
2024/02/25 09:18:30;;;;;;;21.80;10.93;;;;;;;7.19;100.00;100076.78;6081585;19;20117;-75
2024/02/25 09:20:41;;;;;;;23.27;11.63;;;;;;;7.23;100.00;100078.34;6083938;19;20017;-76
2024/02/25 09:22:44;;;;;;;22.77;10.38;;;;;;;7.46;100.00;100078.31;6083273;19;20016;-76
2024/02/25 09:24:49;;;;;;;22.38;11.65;;;;;;;7.65;100.00;100077.56;6081816;19;20037;-77
2024/02/25 09:26:54;;;;;;;22.00;10.63;;;;;;;7.57;100.00;100077.88;6081634;19;20702;-77
2024/02/25 09:28:59;;;;;;;24.65;11.48;;;;;;;7.86;100.00;100074.06;6078442;19;20395;-75
2024/02/25 09:31:06;;;;;;;22.02;12.10;;;;;;;7.98;100.00;100085.78;6081353;19;20403;-75
2024/02/25 09:33:11;;;;;;;27.35;11.55;;;;;;;7.85;100.00;100085.44;6081906;19;20011;-75
2024/02/25 09:35:16;;;;;;;26.08;11.85;;;;;;;7.41;100.00;100082.00;6085706;19;20700;-77
2024/02/25 09:37:27;;;;;;;25.10;12.10;;;;;;;7.57;100.00;100082.25;6085877;19;20006;-77
2024/02/25 09:39:32;;;;;;;19.75;9.77;;;;;;;7.87;100.00;100075.78;6086870;19;20106;-77
2024/02/25 09:41:40;;;;;;;22.85;10.73;;;;;;;7.86;100.00;100083.69;6087345;19;20003;-77